sensor_id;sensor_type;location;lat;lon;timestamp;temperature;humidity
5280;DHT22;2663;53.588;10.010;2022-11-15T00:00:34;8.50;99.90
5280;DHT22;2663;53.588;10.010;2022-11-15T00:03:01;8.60;99.90
5280;DHT22;2663;53.588;10.010;2022-11-15T00:05:27;8.50;99.90
5280;DHT22;2663;53.588;10.010;2022-11-15T00:07:54;8.50;99.90
5280;DHT22;2663;53.588;10.010;2022-11-15T00:10:22;8.50;99.90
5280;DHT22;2663;53.588;10.010;2022-11-15T00:12:49;8.50;99.90
5280;DHT22;2663;53.588;10.010;2022-11-15T00:15:16;8.50;99.90
5280;DHT22;2663;53.588;10.010;2022-11-15T00:17:42;8.50;99.90
5280;DHT22;2663;53.588;10.010;2022-11-15T00:20:09;8.50;99.90
5280;DHT22;2663;53.588;10.010;2022-11-15T00:22:36;8.50;99.90
5280;DHT22;2663;53.588;10.010;2022-11-15T00:25:03;8.50;99.90
5280;DHT22;2663;53.588;10.010;2022-11-15T00:27:29;8.50;99.90
5280;DHT22;2663;53.588;10.010;2022-11-15T00:29:56;8.50;99.90
5280;DHT22;2663;53.588;10.010;2022-11-15T00:32:23;8.50;99.90
5280;DHT22;2663;53.588;10.010;2022-11-15T00:34:49;8.50;99.90
5280;DHT22;2663;53.588;10.010;2022-11-15T00:37:16;8.60;99.90
5280;DHT22;2663;53.588;10.010;2022-11-15T00:39:42;8.60;99.90
5280;DHT22;2663;53.588;10.010;2022-11-15T00:42:09;8.60;99.90
5280;DHT22;2663;53.588;10.010;2022-11-15T00:44:36;8.60;99.90
5280;DHT22;2663;53.588;10.010;2022-11-15T00:47:02;8.70;99.90
5280;DHT22;2663;53.588;10.010;2022-11-15T00:49:29;8.60;99.90
5280;DHT22;2663;53.588;10.010;2022-11-15T00:51:56;8.60;99.90
5280;DHT22;2663;53.588;10.010;2022-11-15T00:54:22;8.60;99.90
5280;DHT22;2663;53.588;10.010;2022-11-15T00:56:49;8.60;99.90
5280;DHT22;2663;53.588;10.010;2022-11-15T00:59:15;8.60;99.90
5280;DHT22;2663;53.588;10.010;2022-11-15T01:01:42;8.60;99.90
5280;DHT22;2663;53.588;10.010;2022-11-15T01:04:09;8.60;99.90
5280;DHT22;2663;53.588;10.010;2022-11-15T01:06:35;8.60;99.90
5280;DHT22;2663;53.588;10.010;2022-11-15T01:09:02;8.70;99.90
5280;DHT22;2663;53.588;10.010;2022-11-15T01:11:29;8.70;99.90
5280;DHT22;2663;53.588;10.010;2022-11-15T01:13:56;8.70;99.90
5280;DHT22;2663;53.588;10.010;2022-11-15T01:16:22;8.70;99.90
5280;DHT22;2663;53.588;10.010;2022-11-15T01:18:50;8.70;99.90
5280;DHT22;2663;53.588;10.010;2022-11-15T01:21:18;8.70;99.90
5280;DHT22;2663;53.588;10.010;2022-11-15T01:23:45;8.70;99.90
5280;DHT22;2663;53.588;10.010;2022-11-15T01:26:13;8.60;99.90
5280;DHT22;2663;53.588;10.010;2022-11-15T01:28:41;8.60;99.90
5280;DHT22;2663;53.588;10.010;2022-11-15T01:31:19;8.60;99.90
5280;DHT22;2663;53.588;10.010;2022-11-15T01:33:47;8.60;99.90
5280;DHT22;2663;53.588;10.010;2022-11-15T01:36:19;8.60;99.90
5280;DHT22;2663;53.588;10.010;2022-11-15T01:38:55;8.50;99.90
5280;DHT22;2663;53.588;10.010;2022-11-15T01:41:25;8.50;99.90
5280;DHT22;2663;53.588;10.010;2022-11-15T01:43:54;8.40;99.90
5280;DHT22;2663;53.588;10.010;2022-11-15T01:46:33;8.40;99.90
5280;DHT22;2663;53.588;10.010;2022-11-15T01:49:05;8.40;99.90
5280;DHT22;2663;53.588;10.010;2022-11-15T01:51:38;8.30;99.90
5280;DHT22;2663;53.588;10.010;2022-11-15T01:54:09;8.30;99.90
5280;DHT22;2663;53.588;10.010;2022-11-15T01:56:45;8.30;99.90
5280;DHT22;2663;53.588;10.010;2022-11-15T01:59:13;8.30;99.90
5280;DHT22;2663;53.588;10.010;2022-11-15T02:01:40;8.30;99.90
5280;DHT22;2663;53.588;10.010;2022-11-15T02:04:17;8.20;99.90
5280;DHT22;2663;53.588;10.010;2022-11-15T02:06:47;8.20;99.90
5280;DHT22;2663;53.588;10.010;2022-11-15T02:09:17;8.20;99.90
5280;DHT22;2663;53.588;10.010;2022-11-15T02:11:44;8.20;99.90
5280;DHT22;2663;53.588;10.010;2022-11-15T02:14:11;8.20;99.90
5280;DHT22;2663;53.588;10.010;2022-11-15T02:16:53;8.20;99.90
5280;DHT22;2663;53.588;10.010;2022-11-15T02:25:10;8.20;99.90
5280;DHT22;2663;53.588;10.010;2022-11-15T02:28:06;8.10;99.90
5280;DHT22;2663;53.588;10.010;2022-11-15T02:30:42;8.10;99.90
5280;DHT22;2663;53.588;10.010;2022-11-15T02:36:08;8.10;99.90
5280;DHT22;2663;53.588;10.010;2022-11-15T02:39:13;8.00;99.90
5280;DHT22;2663;53.588;10.010;2022-11-15T02:41:40;8.00;99.90
5280;DHT22;2663;53.588;10.010;2022-11-15T02:44:29;8.00;99.90
5280;DHT22;2663;53.588;10.010;2022-11-15T02:47:12;8.00;99.90
5280;DHT22;2663;53.588;10.010;2022-11-15T02:49:46;8.00;99.90
5280;DHT22;2663;53.588;10.010;2022-11-15T02:52:17;8.00;99.90
5280;DHT22;2663;53.588;10.010;2022-11-15T02:54:53;8.00;99.90
5280;DHT22;2663;53.588;10.010;2022-11-15T02:57:39;8.00;99.90
5280;DHT22;2663;53.588;10.010;2022-11-15T03:00:10;8.00;99.90
5280;DHT22;2663;53.588;10.010;2022-11-15T03:08:25;8.00;99.90
5280;DHT22;2663;53.588;10.010;2022-11-15T03:11:17;8.00;99.90
5280;DHT22;2663;53.588;10.010;2022-11-15T03:14:01;8.00;99.90
5280;DHT22;2663;53.588;10.010;2022-11-15T03:21:52;7.90;99.90
5280;DHT22;2663;53.588;10.010;2022-11-15T03:24:23;8.00;99.90
5280;DHT22;2663;53.588;10.010;2022-11-15T03:26:54;8.00;99.90
5280;DHT22;2663;53.588;10.010;2022-11-15T03:29:25;8.00;99.90
5280;DHT22;2663;53.588;10.010;2022-11-15T03:31:58;8.00;99.90
5280;DHT22;2663;53.588;10.010;2022-11-15T03:34:42;8.00;99.90
5280;DHT22;2663;53.588;10.010;2022-11-15T03:37:12;8.00;99.90
5280;DHT22;2663;53.588;10.010;2022-11-15T03:39:40;8.00;99.90
5280;DHT22;2663;53.588;10.010;2022-11-15T03:42:31;8.00;99.90
5280;DHT22;2663;53.588;10.010;2022-11-15T03:45:21;8.00;99.90
5280;DHT22;2663;53.588;10.010;2022-11-15T03:50:22;8.00;99.90
5280;DHT22;2663;53.588;10.010;2022-11-15T03:52:54;8.00;99.90
5280;DHT22;2663;53.588;10.010;2022-11-15T03:55:21;8.00;99.90
5280;DHT22;2663;53.588;10.010;2022-11-15T03:57:50;8.00;99.90
5280;DHT22;2663;53.588;10.010;2022-11-15T04:00:18;8.00;99.90
5280;DHT22;2663;53.588;10.010;2022-11-15T04:02:45;8.10;99.90
5280;DHT22;2663;53.588;10.010;2022-11-15T04:05:12;8.10;99.90
5280;DHT22;2663;53.588;10.010;2022-11-15T04:07:38;8.10;99.90
5280;DHT22;2663;53.588;10.010;2022-11-15T04:10:06;8.10;99.90
5280;DHT22;2663;53.588;10.010;2022-11-15T04:12:35;8.10;99.90
5280;DHT22;2663;53.588;10.010;2022-11-15T04:15:15;8.10;99.90
5280;DHT22;2663;53.588;10.010;2022-11-15T04:17:45;8.10;99.90
5280;DHT22;2663;53.588;10.010;2022-11-15T04:20:21;8.10;99.90
5280;DHT22;2663;53.588;10.010;2022-11-15T04:23:11;8.10;99.90
5280;DHT22;2663;53.588;10.010;2022-11-15T04:26:06;8.20;99.90
5280;DHT22;2663;53.588;10.010;2022-11-15T04:28:33;8.10;99.90
5280;DHT22;2663;53.588;10.010;2022-11-15T04:31:00;8.20;99.90
5280;DHT22;2663;53.588;10.010;2022-11-15T04:33:27;8.20;99.90
5280;DHT22;2663;53.588;10.010;2022-11-15T04:35:53;8.30;99.90
5280;DHT22;2663;53.588;10.010;2022-11-15T04:38:39;8.30;99.90
5280;DHT22;2663;53.588;10.010;2022-11-15T04:41:05;8.30;99.90
5280;DHT22;2663;53.588;10.010;2022-11-15T04:43:32;8.20;99.90
5280;DHT22;2663;53.588;10.010;2022-11-15T04:45:59;8.30;99.90
5280;DHT22;2663;53.588;10.010;2022-11-15T04:48:26;8.30;99.90
5280;DHT22;2663;53.588;10.010;2022-11-15T04:50:52;8.30;99.90
5280;DHT22;2663;53.588;10.010;2022-11-15T04:53:19;8.30;99.90
5280;DHT22;2663;53.588;10.010;2022-11-15T04:55:46;8.40;99.90
5280;DHT22;2663;53.588;10.010;2022-11-15T04:58:13;8.40;99.90
5280;DHT22;2663;53.588;10.010;2022-11-15T05:00:40;8.40;99.90
5280;DHT22;2663;53.588;10.010;2022-11-15T05:03:09;8.50;99.90
5280;DHT22;2663;53.588;10.010;2022-11-15T05:05:54;8.50;99.90
5280;DHT22;2663;53.588;10.010;2022-11-15T05:08:20;8.50;99.90
5280;DHT22;2663;53.588;10.010;2022-11-15T05:10:47;8.50;99.90
5280;DHT22;2663;53.588;10.010;2022-11-15T05:13:14;8.60;99.90
5280;DHT22;2663;53.588;10.010;2022-11-15T05:15:41;8.60;99.90
5280;DHT22;2663;53.588;10.010;2022-11-15T05:18:07;8.60;99.90
5280;DHT22;2663;53.588;10.010;2022-11-15T05:20:34;8.60;99.90
5280;DHT22;2663;53.588;10.010;2022-11-15T05:23:01;8.60;99.90
5280;DHT22;2663;53.588;10.010;2022-11-15T05:25:27;8.60;99.90
5280;DHT22;2663;53.588;10.010;2022-11-15T05:27:54;8.60;99.90
5280;DHT22;2663;53.588;10.010;2022-11-15T05:30:21;8.70;99.90
5280;DHT22;2663;53.588;10.010;2022-11-15T05:32:48;8.70;99.90
5280;DHT22;2663;53.588;10.010;2022-11-15T05:35:39;8.70;99.90
5280;DHT22;2663;53.588;10.010;2022-11-15T05:38:07;8.70;99.90
5280;DHT22;2663;53.588;10.010;2022-11-15T05:40:34;8.80;99.90
5280;DHT22;2663;53.588;10.010;2022-11-15T05:43:02;8.70;99.90
5280;DHT22;2663;53.588;10.010;2022-11-15T05:45:31;8.80;99.90
5280;DHT22;2663;53.588;10.010;2022-11-15T05:47:59;8.80;99.90
5280;DHT22;2663;53.588;10.010;2022-11-15T05:50:27;8.90;99.90
5280;DHT22;2663;53.588;10.010;2022-11-15T05:52:54;8.90;99.90
5280;DHT22;2663;53.588;10.010;2022-11-15T05:55:27;8.90;99.90
5280;DHT22;2663;53.588;10.010;2022-11-15T05:57:54;9.00;99.90
5280;DHT22;2663;53.588;10.010;2022-11-15T06:00:21;8.90;99.90
5280;DHT22;2663;53.588;10.010;2022-11-15T06:02:47;9.00;99.90
5280;DHT22;2663;53.588;10.010;2022-11-15T06:05:14;9.00;99.90
5280;DHT22;2663;53.588;10.010;2022-11-15T06:07:41;9.00;99.90
5280;DHT22;2663;53.588;10.010;2022-11-15T06:10:08;9.00;99.90
5280;DHT22;2663;53.588;10.010;2022-11-15T06:12:35;9.10;99.90
5280;DHT22;2663;53.588;10.010;2022-11-15T06:15:01;9.10;99.90
5280;DHT22;2663;53.588;10.010;2022-11-15T06:17:28;9.20;99.90
5280;DHT22;2663;53.588;10.010;2022-11-15T06:19:55;9.20;99.90
5280;DHT22;2663;53.588;10.010;2022-11-15T06:22:22;9.30;99.90
5280;DHT22;2663;53.588;10.010;2022-11-15T06:24:48;9.30;99.90
5280;DHT22;2663;53.588;10.010;2022-11-15T06:27:15;9.30;99.90
5280;DHT22;2663;53.588;10.010;2022-11-15T06:29:42;9.30;99.90
5280;DHT22;2663;53.588;10.010;2022-11-15T06:32:08;9.30;99.90
5280;DHT22;2663;53.588;10.010;2022-11-15T06:34:35;9.30;99.90
5280;DHT22;2663;53.588;10.010;2022-11-15T06:37:02;9.30;99.90
5280;DHT22;2663;53.588;10.010;2022-11-15T06:39:29;9.30;99.90
5280;DHT22;2663;53.588;10.010;2022-11-15T06:41:55;9.30;99.90
5280;DHT22;2663;53.588;10.010;2022-11-15T06:44:22;9.40;99.90
5280;DHT22;2663;53.588;10.010;2022-11-15T06:46:49;9.40;99.90
5280;DHT22;2663;53.588;10.010;2022-11-15T06:49:15;9.40;99.90
5280;DHT22;2663;53.588;10.010;2022-11-15T06:51:43;9.80;99.90
5280;DHT22;2663;53.588;10.010;2022-11-15T06:54:09;10.70;99.90
5280;DHT22;2663;53.588;10.010;2022-11-15T06:56:36;11.00;99.90
5280;DHT22;2663;53.588;10.010;2022-11-15T06:59:03;11.40;99.90
5280;DHT22;2663;53.588;10.010;2022-11-15T07:01:29;12.00;99.90
5280;DHT22;2663;53.588;10.010;2022-11-15T07:03:56;11.50;99.90
5280;DHT22;2663;53.588;10.010;2022-11-15T07:06:22;11.10;99.90
5280;DHT22;2663;53.588;10.010;2022-11-15T07:08:49;10.70;99.90
5280;DHT22;2663;53.588;10.010;2022-11-15T07:11:16;10.50;99.90
5280;DHT22;2663;53.588;10.010;2022-11-15T07:13:42;10.30;99.90
5280;DHT22;2663;53.588;10.010;2022-11-15T07:16:10;10.20;99.90
5280;DHT22;2663;53.588;10.010;2022-11-15T07:18:38;10.10;99.90
5280;DHT22;2663;53.588;10.010;2022-11-15T07:21:08;9.90;99.90
5280;DHT22;2663;53.588;10.010;2022-11-15T07:23:36;9.90;99.90
5280;DHT22;2663;53.588;10.010;2022-11-15T07:26:05;9.90;99.90
5280;DHT22;2663;53.588;10.010;2022-11-15T07:28:32;9.90;99.90
5280;DHT22;2663;53.588;10.010;2022-11-15T07:31:02;9.90;99.90
5280;DHT22;2663;53.588;10.010;2022-11-15T07:33:29;9.90;99.90
5280;DHT22;2663;53.588;10.010;2022-11-15T07:35:59;9.80;99.90
5280;DHT22;2663;53.588;10.010;2022-11-15T07:38:28;9.80;99.90
5280;DHT22;2663;53.588;10.010;2022-11-15T07:41:00;9.70;99.90
5280;DHT22;2663;53.588;10.010;2022-11-15T07:43:27;9.70;99.90
5280;DHT22;2663;53.588;10.010;2022-11-15T07:45:55;9.70;99.90
5280;DHT22;2663;53.588;10.010;2022-11-15T07:48:25;9.70;99.90
5280;DHT22;2663;53.588;10.010;2022-11-15T07:51:09;9.70;99.90
5280;DHT22;2663;53.588;10.010;2022-11-15T07:53:40;9.70;99.90
5280;DHT22;2663;53.588;10.010;2022-11-15T07:56:07;9.70;99.90
5280;DHT22;2663;53.588;10.010;2022-11-15T07:58:34;9.70;99.90
5280;DHT22;2663;53.588;10.010;2022-11-15T08:01:07;9.70;99.90
5280;DHT22;2663;53.588;10.010;2022-11-15T08:03:35;9.80;99.90
5280;DHT22;2663;53.588;10.010;2022-11-15T08:06:02;9.80;99.90
5280;DHT22;2663;53.588;10.010;2022-11-15T08:08:29;9.80;99.90
5280;DHT22;2663;53.588;10.010;2022-11-15T08:10:57;9.70;99.90
5280;DHT22;2663;53.588;10.010;2022-11-15T08:13:24;9.70;99.90
5280;DHT22;2663;53.588;10.010;2022-11-15T08:15:51;9.70;99.90
5280;DHT22;2663;53.588;10.010;2022-11-15T08:18:24;9.80;99.90
5280;DHT22;2663;53.588;10.010;2022-11-15T08:20:50;9.80;99.90
5280;DHT22;2663;53.588;10.010;2022-11-15T08:23:17;9.80;99.90
5280;DHT22;2663;53.588;10.010;2022-11-15T08:25:44;9.90;99.90
5280;DHT22;2663;53.588;10.010;2022-11-15T08:28:10;9.90;99.90
5280;DHT22;2663;53.588;10.010;2022-11-15T08:30:39;10.00;99.90
5280;DHT22;2663;53.588;10.010;2022-11-15T08:33:12;10.00;99.90
5280;DHT22;2663;53.588;10.010;2022-11-15T08:35:41;10.00;99.90
5280;DHT22;2663;53.588;10.010;2022-11-15T08:38:08;10.00;99.90
5280;DHT22;2663;53.588;10.010;2022-11-15T08:40:35;10.00;99.90
5280;DHT22;2663;53.588;10.010;2022-11-15T08:43:01;10.10;99.90
5280;DHT22;2663;53.588;10.010;2022-11-15T08:45:30;10.20;99.90
5280;DHT22;2663;53.588;10.010;2022-11-15T08:47:57;10.20;99.90
5280;DHT22;2663;53.588;10.010;2022-11-15T08:50:24;10.20;99.90
5280;DHT22;2663;53.588;10.010;2022-11-15T08:52:50;10.10;99.90
5280;DHT22;2663;53.588;10.010;2022-11-15T08:55:17;10.10;99.90
5280;DHT22;2663;53.588;10.010;2022-11-15T08:57:44;10.10;99.90
5280;DHT22;2663;53.588;10.010;2022-11-15T09:00:11;10.10;99.90
5280;DHT22;2663;53.588;10.010;2022-11-15T09:02:39;10.10;99.90
5280;DHT22;2663;53.588;10.010;2022-11-15T09:05:07;10.10;99.90
5280;DHT22;2663;53.588;10.010;2022-11-15T09:07:34;10.20;99.90
5280;DHT22;2663;53.588;10.010;2022-11-15T09:10:01;10.10;99.90
5280;DHT22;2663;53.588;10.010;2022-11-15T09:12:27;10.20;99.90
5280;DHT22;2663;53.588;10.010;2022-11-15T09:14:54;10.20;99.90
5280;DHT22;2663;53.588;10.010;2022-11-15T09:17:21;10.20;99.90
5280;DHT22;2663;53.588;10.010;2022-11-15T09:19:50;10.20;99.90
5280;DHT22;2663;53.588;10.010;2022-11-15T09:22:17;10.30;99.90
5280;DHT22;2663;53.588;10.010;2022-11-15T09:24:44;10.30;99.90
5280;DHT22;2663;53.588;10.010;2022-11-15T09:27:11;10.30;99.90
5280;DHT22;2663;53.588;10.010;2022-11-15T09:29:38;10.40;99.90
5280;DHT22;2663;53.588;10.010;2022-11-15T09:32:05;10.40;99.90
5280;DHT22;2663;53.588;10.010;2022-11-15T09:34:32;10.30;99.90
5280;DHT22;2663;53.588;10.010;2022-11-15T09:36:59;10.30;99.90
5280;DHT22;2663;53.588;10.010;2022-11-15T09:39:25;10.50;99.90
5280;DHT22;2663;53.588;10.010;2022-11-15T09:48:11;10.60;99.90
5280;DHT22;2663;53.588;10.010;2022-11-15T09:50:50;10.70;99.90
5280;DHT22;2663;53.588;10.010;2022-11-15T09:53:32;10.80;99.90
5280;DHT22;2663;53.588;10.010;2022-11-15T09:56:26;10.80;99.90
5280;DHT22;2663;53.588;10.010;2022-11-15T10:02:12;11.00;99.90
5280;DHT22;2663;53.588;10.010;2022-11-15T10:04:40;11.00;99.90
5280;DHT22;2663;53.588;10.010;2022-11-15T10:07:16;11.00;99.90
5280;DHT22;2663;53.588;10.010;2022-11-15T10:09:53;11.00;99.90
5280;DHT22;2663;53.588;10.010;2022-11-15T10:12:22;11.10;99.90
5280;DHT22;2663;53.588;10.010;2022-11-15T10:14:50;11.10;99.90
5280;DHT22;2663;53.588;10.010;2022-11-15T10:22:53;11.20;99.90
5280;DHT22;2663;53.588;10.010;2022-11-15T10:25:28;11.20;99.90
5280;DHT22;2663;53.588;10.010;2022-11-15T10:30:39;11.20;99.90
5280;DHT22;2663;53.588;10.010;2022-11-15T10:35:38;11.30;99.90
5280;DHT22;2663;53.588;10.010;2022-11-15T10:38:07;11.30;99.90
5280;DHT22;2663;53.588;10.010;2022-11-15T10:40:35;11.40;99.90
5280;DHT22;2663;53.588;10.010;2022-11-15T10:43:20;11.40;99.90
5280;DHT22;2663;53.588;10.010;2022-11-15T10:45:46;11.50;99.90
5280;DHT22;2663;53.588;10.010;2022-11-15T10:50:44;11.60;99.90
5280;DHT22;2663;53.588;10.010;2022-11-15T10:53:41;11.60;99.90
5280;DHT22;2663;53.588;10.010;2022-11-15T10:56:12;11.60;99.90
5280;DHT22;2663;53.588;10.010;2022-11-15T10:58:44;11.60;99.90
5280;DHT22;2663;53.588;10.010;2022-11-15T11:01:13;11.70;99.90
5280;DHT22;2663;53.588;10.010;2022-11-15T11:03:43;11.70;99.90
5280;DHT22;2663;53.588;10.010;2022-11-15T11:06:14;11.70;99.90
5280;DHT22;2663;53.588;10.010;2022-11-15T11:08:57;11.70;99.90
5280;DHT22;2663;53.588;10.010;2022-11-15T11:11:25;11.70;99.90
5280;DHT22;2663;53.588;10.010;2022-11-15T11:13:52;11.80;99.90
5280;DHT22;2663;53.588;10.010;2022-11-15T11:18:56;11.90;99.90
5280;DHT22;2663;53.588;10.010;2022-11-15T11:21:56;12.00;99.90
5280;DHT22;2663;53.588;10.010;2022-11-15T11:27:12;12.00;99.90
5280;DHT22;2663;53.588;10.010;2022-11-15T11:29:54;12.00;99.90
5280;DHT22;2663;53.588;10.010;2022-11-15T11:32:29;12.10;99.90
5280;DHT22;2663;53.588;10.010;2022-11-15T11:35:17;12.10;99.90
5280;DHT22;2663;53.588;10.010;2022-11-15T11:37:50;12.20;99.90
5280;DHT22;2663;53.588;10.010;2022-11-15T11:46:25;12.20;99.90
5280;DHT22;2663;53.588;10.010;2022-11-15T11:49:03;12.40;99.90
5280;DHT22;2663;53.588;10.010;2022-11-15T11:51:43;12.20;99.90
5280;DHT22;2663;53.588;10.010;2022-11-15T11:54:20;12.30;99.90
5280;DHT22;2663;53.588;10.010;2022-11-15T11:56:50;12.30;99.90
5280;DHT22;2663;53.588;10.010;2022-11-15T11:59:48;12.40;99.90
5280;DHT22;2663;53.588;10.010;2022-11-15T12:02:28;12.40;99.90
5280;DHT22;2663;53.588;10.010;2022-11-15T12:05:05;12.40;99.90
5280;DHT22;2663;53.588;10.010;2022-11-15T12:07:34;12.40;99.90
5280;DHT22;2663;53.588;10.010;2022-11-15T12:12:49;12.40;99.90
5280;DHT22;2663;53.588;10.010;2022-11-15T12:15:21;12.40;99.90
5280;DHT22;2663;53.588;10.010;2022-11-15T12:17:48;12.40;99.90
5280;DHT22;2663;53.588;10.010;2022-11-15T12:20:18;12.50;99.90
5280;DHT22;2663;53.588;10.010;2022-11-15T12:23:03;12.60;99.90
5280;DHT22;2663;53.588;10.010;2022-11-15T12:25:53;12.60;99.90
5280;DHT22;2663;53.588;10.010;2022-11-15T12:28:43;12.70;99.90
5280;DHT22;2663;53.588;10.010;2022-11-15T12:34:04;12.80;99.90
5280;DHT22;2663;53.588;10.010;2022-11-15T12:36:39;12.90;99.90
5280;DHT22;2663;53.588;10.010;2022-11-15T12:39:11;12.90;99.90
5280;DHT22;2663;53.588;10.010;2022-11-15T12:59:49;13.10;99.90
5280;DHT22;2663;53.588;10.010;2022-11-15T13:02:24;13.10;99.90
5280;DHT22;2663;53.588;10.010;2022-11-15T13:17:55;13.20;99.90
5280;DHT22;2663;53.588;10.010;2022-11-15T13:23:28;13.20;99.90
5280;DHT22;2663;53.588;10.010;2022-11-15T13:31:19;13.10;99.90
5280;DHT22;2663;53.588;10.010;2022-11-15T13:33:48;13.20;99.90
5280;DHT22;2663;53.588;10.010;2022-11-15T13:36:23;13.10;99.90
5280;DHT22;2663;53.588;10.010;2022-11-15T13:38:56;13.10;99.90
5280;DHT22;2663;53.588;10.010;2022-11-15T13:41:32;13.10;99.90
5280;DHT22;2663;53.588;10.010;2022-11-15T13:44:00;13.10;99.90
5280;DHT22;2663;53.588;10.010;2022-11-15T13:46:32;12.90;99.90
5280;DHT22;2663;53.588;10.010;2022-11-15T13:49:04;13.20;99.90
5280;DHT22;2663;53.588;10.010;2022-11-15T13:51:52;13.10;99.90
5280;DHT22;2663;53.588;10.010;2022-11-15T13:54:43;13.10;99.90
5280;DHT22;2663;53.588;10.010;2022-11-15T13:57:26;13.10;99.90
5280;DHT22;2663;53.588;10.010;2022-11-15T14:00:06;13.20;99.90
5280;DHT22;2663;53.588;10.010;2022-11-15T14:02:34;13.10;99.90
5280;DHT22;2663;53.588;10.010;2022-11-15T14:05:19;13.10;99.90
5280;DHT22;2663;53.588;10.010;2022-11-15T14:10:30;13.20;99.90
5280;DHT22;2663;53.588;10.010;2022-11-15T14:12:57;13.20;99.90
5280;DHT22;2663;53.588;10.010;2022-11-15T14:15:30;13.20;99.90
5280;DHT22;2663;53.588;10.010;2022-11-15T14:17:57;13.20;99.90
5280;DHT22;2663;53.588;10.010;2022-11-15T14:20:35;13.20;99.90
5280;DHT22;2663;53.588;10.010;2022-11-15T14:23:26;13.20;99.90
5280;DHT22;2663;53.588;10.010;2022-11-15T14:25:57;13.20;99.90
5280;DHT22;2663;53.588;10.010;2022-11-15T14:30:52;13.10;99.90
5280;DHT22;2663;53.588;10.010;2022-11-15T14:35:50;13.00;99.90
5280;DHT22;2663;53.588;10.010;2022-11-15T14:38:17;13.00;99.90
5280;DHT22;2663;53.588;10.010;2022-11-15T14:40:44;13.00;99.90
5280;DHT22;2663;53.588;10.010;2022-11-15T14:43:12;13.00;99.90
5280;DHT22;2663;53.588;10.010;2022-11-15T14:45:39;13.00;99.90
5280;DHT22;2663;53.588;10.010;2022-11-15T14:48:06;13.00;99.90
5280;DHT22;2663;53.588;10.010;2022-11-15T14:50:33;12.90;99.90
5280;DHT22;2663;53.588;10.010;2022-11-15T14:53:01;12.90;99.90
5280;DHT22;2663;53.588;10.010;2022-11-15T14:55:35;12.90;99.90
5280;DHT22;2663;53.588;10.010;2022-11-15T14:58:03;12.90;99.90
5280;DHT22;2663;53.588;10.010;2022-11-15T15:00:31;12.90;99.90
5280;DHT22;2663;53.588;10.010;2022-11-15T15:03:01;12.80;99.90
5280;DHT22;2663;53.588;10.010;2022-11-15T15:05:34;12.80;99.90
5280;DHT22;2663;53.588;10.010;2022-11-15T15:08:01;12.70;99.90
5280;DHT22;2663;53.588;10.010;2022-11-15T15:10:32;12.70;99.90
5280;DHT22;2663;53.588;10.010;2022-11-15T15:13:18;12.80;99.90
5280;DHT22;2663;53.588;10.010;2022-11-15T15:15:45;12.70;99.90
5280;DHT22;2663;53.588;10.010;2022-11-15T15:18:12;12.70;99.90
5280;DHT22;2663;53.588;10.010;2022-11-15T15:20:40;12.70;99.90
5280;DHT22;2663;53.588;10.010;2022-11-15T15:23:16;12.60;99.90
5280;DHT22;2663;53.588;10.010;2022-11-15T15:25:44;12.60;99.90
5280;DHT22;2663;53.588;10.010;2022-11-15T15:28:12;12.60;99.90
5280;DHT22;2663;53.588;10.010;2022-11-15T15:30:39;12.50;99.90
5280;DHT22;2663;53.588;10.010;2022-11-15T15:33:06;12.50;99.90
5280;DHT22;2663;53.588;10.010;2022-11-15T15:35:34;12.40;99.90
5280;DHT22;2663;53.588;10.010;2022-11-15T15:38:01;12.40;99.90
5280;DHT22;2663;53.588;10.010;2022-11-15T15:40:31;12.40;99.90
5280;DHT22;2663;53.588;10.010;2022-11-15T15:42:58;12.30;99.90
5280;DHT22;2663;53.588;10.010;2022-11-15T15:45:25;12.30;99.90
5280;DHT22;2663;53.588;10.010;2022-11-15T15:47:53;12.30;99.90
5280;DHT22;2663;53.588;10.010;2022-11-15T15:50:27;12.30;99.90
5280;DHT22;2663;53.588;10.010;2022-11-15T15:52:57;12.30;99.90
5280;DHT22;2663;53.588;10.010;2022-11-15T15:55:25;12.20;99.90
5280;DHT22;2663;53.588;10.010;2022-11-15T15:57:52;12.20;99.90
5280;DHT22;2663;53.588;10.010;2022-11-15T16:00:20;12.20;99.90
5280;DHT22;2663;53.588;10.010;2022-11-15T16:02:47;12.10;99.90
5280;DHT22;2663;53.588;10.010;2022-11-15T16:05:14;12.10;99.90
5280;DHT22;2663;53.588;10.010;2022-11-15T16:07:41;12.10;99.90
5280;DHT22;2663;53.588;10.010;2022-11-15T16:10:27;12.10;99.90
5280;DHT22;2663;53.588;10.010;2022-11-15T16:12:54;12.10;99.90
5280;DHT22;2663;53.588;10.010;2022-11-15T16:15:23;12.10;99.90
5280;DHT22;2663;53.588;10.010;2022-11-15T16:17:58;12.10;99.90
5280;DHT22;2663;53.588;10.010;2022-11-15T16:20:46;12.10;99.90
5280;DHT22;2663;53.588;10.010;2022-11-15T16:23:18;12.00;99.90
5280;DHT22;2663;53.588;10.010;2022-11-15T16:25:51;12.00;99.90
5280;DHT22;2663;53.588;10.010;2022-11-15T16:28:24;12.10;99.90
5280;DHT22;2663;53.588;10.010;2022-11-15T16:31:00;12.00;99.90
5280;DHT22;2663;53.588;10.010;2022-11-15T16:33:27;12.10;99.90
5280;DHT22;2663;53.588;10.010;2022-11-15T16:35:54;12.10;99.90
5280;DHT22;2663;53.588;10.010;2022-11-15T16:38:21;12.20;99.90
5280;DHT22;2663;53.588;10.010;2022-11-15T16:40:47;12.20;99.90
5280;DHT22;2663;53.588;10.010;2022-11-15T16:43:14;12.20;99.90
5280;DHT22;2663;53.588;10.010;2022-11-15T16:45:41;12.20;99.90
5280;DHT22;2663;53.588;10.010;2022-11-15T16:48:22;12.20;99.90
5280;DHT22;2663;53.588;10.010;2022-11-15T16:50:49;12.20;99.90
5280;DHT22;2663;53.588;10.010;2022-11-15T16:53:16;12.10;99.90
5280;DHT22;2663;53.588;10.010;2022-11-15T16:55:42;12.10;99.90
5280;DHT22;2663;53.588;10.010;2022-11-15T16:58:09;12.20;99.90
5280;DHT22;2663;53.588;10.010;2022-11-15T17:00:36;12.20;99.90
5280;DHT22;2663;53.588;10.010;2022-11-15T17:03:03;12.10;99.90
5280;DHT22;2663;53.588;10.010;2022-11-15T17:05:30;12.10;99.90
5280;DHT22;2663;53.588;10.010;2022-11-15T17:07:56;12.10;99.90
5280;DHT22;2663;53.588;10.010;2022-11-15T17:10:25;12.00;99.90
5280;DHT22;2663;53.588;10.010;2022-11-15T17:12:54;11.90;99.90
5280;DHT22;2663;53.588;10.010;2022-11-15T17:15:21;11.90;99.90
5280;DHT22;2663;53.588;10.010;2022-11-15T17:17:51;11.90;99.90
5280;DHT22;2663;53.588;10.010;2022-11-15T17:20:20;11.90;99.90
5280;DHT22;2663;53.588;10.010;2022-11-15T17:22:47;11.90;99.90
5280;DHT22;2663;53.588;10.010;2022-11-15T17:25:14;11.90;99.90
5280;DHT22;2663;53.588;10.010;2022-11-15T17:27:41;11.90;99.90
5280;DHT22;2663;53.588;10.010;2022-11-15T17:30:10;11.90;99.90
5280;DHT22;2663;53.588;10.010;2022-11-15T17:32:37;12.10;99.90
5280;DHT22;2663;53.588;10.010;2022-11-15T17:35:04;11.90;99.90
5280;DHT22;2663;53.588;10.010;2022-11-15T17:37:40;11.80;99.90
5280;DHT22;2663;53.588;10.010;2022-11-15T17:40:08;11.80;99.90
5280;DHT22;2663;53.588;10.010;2022-11-15T17:42:34;11.80;99.90
5280;DHT22;2663;53.588;10.010;2022-11-15T17:45:01;11.80;99.90
5280;DHT22;2663;53.588;10.010;2022-11-15T17:47:35;11.90;99.90
5280;DHT22;2663;53.588;10.010;2022-11-15T17:50:02;11.90;99.90
5280;DHT22;2663;53.588;10.010;2022-11-15T17:52:28;11.90;99.90
5280;DHT22;2663;53.588;10.010;2022-11-15T17:54:55;11.90;99.90
5280;DHT22;2663;53.588;10.010;2022-11-15T17:57:22;11.90;99.90
5280;DHT22;2663;53.588;10.010;2022-11-15T17:59:48;12.00;99.90
5280;DHT22;2663;53.588;10.010;2022-11-15T18:02:15;12.00;99.90